Time;durP1;ratioP1;P1;durP2;ratioP2;P2;SDS_P1;SDS_P2;PMS_P1;PMS_P2;Temp;Humidity;BMP_temperature;BMP_pressure;BME280_temperature;BME280_humidity;BME280_pressure;Samples;Min_cycle;Max_cycle;Signal;HPM_P1;HPM_P2
2023/06/01 00:00:33;;;;;;;4.45;2.13;;;11.20;1.00;;;;;;5123960;27;20050;-76
2023/06/01 00:02:59;;;;;;;7.85;3.42;;;11.30;4.60;;;;;;5090049;28;20623;-76
2023/06/01 00:05:25;;;;;;;8.60;3.50;;;11.30;1.00;;;;;;5089478;28;20046;-76
2023/06/01 00:07:50;;;;;;;6.43;2.75;;;11.30;1.00;;;;;;5090383;28;20135;-76
2023/06/01 00:10:16;;;;;;;5.22;2.47;;;11.30;1.00;;;;;;5121593;27;20491;-76
2023/06/01 00:12:43;;;;;;;10.75;3.47;;;11.30;1.00;;;;;;5071812;28;20040;-76
2023/06/01 00:15:08;;;;;;;;;;;11.20;1.00;;;;;;5088429;28;20079;-76
2023/06/01 00:17:34;;;;;;;5.35;2.80;;;11.30;1.00;;;;;;5089057;28;19970;-76
2023/06/01 00:20:18;;;;;;;6.82;3.25;;;11.20;10.50;;;;;;5121333;27;20036;-75
2023/06/01 00:22:43;;;;;;;4.97;2.50;;;11.20;1.00;;;;;;5087860;28;20493;-76
2023/06/01 00:25:09;;;;;;;6.25;2.92;;;11.20;9.30;;;;;;5085915;28;20036;-76
2023/06/01 00:27:36;;;;;;;6.80;2.80;;;11.20;1.00;;;;;;5072035;28;20048;-76
2023/06/01 00:30:02;;;;;;;;;;;11.20;1.00;;;;;;5089189;28;20055;-76
2023/06/01 00:32:28;;;;;;;4.45;2.47;;;11.20;1.00;;;;;;5087993;28;19920;-76
2023/06/01 00:34:54;;;;;;;6.38;2.90;;;11.20;1.00;;;;;;5088420;28;20040;-76
2023/06/01 00:37:19;;;;;;;8.45;3.05;;;11.20;1.00;;;;;;5122867;27;20087;-76
2023/06/01 00:39:45;;;;;;;9.35;3.42;;;11.20;1.00;;;;;;5088845;28;20429;-76
2023/06/01 00:42:11;;;;;;;6.15;3.17;;;11.20;1.00;;;;;;5122229;27;20572;-75
2023/06/01 00:44:36;;;;;;;4.45;2.40;;;11.20;1.00;;;;;;5087949;28;20047;-76
2023/06/01 00:47:02;;;;;;;5.45;2.47;;;11.20;1.00;;;;;;5122073;27;20048;-76
2023/06/01 00:49:28;;;;;;;8.88;3.13;;;11.20;1.00;;;;;;5087340;28;20071;-75
2023/06/01 00:51:54;;;;;;;12.73;2.90;;;11.20;1.00;;;;;;5059379;28;20079;-77
2023/06/01 00:54:20;;;;;;;;;;;11.10;1.00;;;;;;5088316;28;20512;-76
2023/06/01 00:56:46;;;;;;;6.43;3.22;;;11.10;2.30;;;;;;5104757;28;19920;-76
2023/06/01 00:59:13;;;;;;;8.18;3.20;;;11.10;1.00;;;;;;5085646;28;20329;-76
2023/06/01 01:01:42;;;;;;;8.07;3.53;;;11.10;1.00;;;;;;5070142;28;20055;-76
2023/06/01 01:04:09;;;;;;;7.00;3.75;;;11.10;1.00;;;;;;5084505;28;20432;-76
2023/06/01 01:06:57;;;;;;;5.97;3.08;;;11.10;1.00;;;;;;5086048;28;20560;-76
2023/06/01 01:09:39;;;;;;;5.40;3.30;;;11.10;1.00;;;;;;5065185;28;20043;-76
2023/06/01 01:12:36;;;;;;;4.28;2.50;;;11.10;1.00;;;;;;5083011;28;20044;-76
2023/06/01 01:15:13;;;;;;;5.28;2.63;;;11.10;11.10;;;;;;5117626;28;20039;-76
2023/06/01 01:17:42;;;;;;;10.15;4.15;;;11.10;1.00;;;;;;5088376;28;20062;-76
2023/06/01 01:20:22;;;;;;;10.00;3.72;;;11.10;1.00;;;;;;5086626;28;20051;-76
2023/06/01 01:23:16;;;;;;;9.90;4.10;;;11.10;1.00;;;;;;5087764;28;20109;-76
2023/06/01 01:25:59;;;;;;;7.85;3.60;;;11.10;1.00;;;;;;5088249;28;20071;-76
2023/06/01 01:28:56;;;;;;;9.00;3.58;;;11.10;1.00;;;;;;5088496;28;20055;-77
2023/06/01 01:31:23;;;;;;;;;;;11.10;1.00;;;;;;5088795;28;20048;-76
2023/06/01 01:33:52;;;;;;;5.85;3.15;;;11.00;1.00;;;;;;5089158;28;19931;-76
2023/06/01 01:36:18;;;;;;;4.80;2.97;;;11.00;1.00;;;;;;5088359;28;20048;-76
2023/06/01 01:38:44;;;;;;;;;;;11.00;1.00;;;;;;5089222;28;20052;-76
2023/06/01 01:41:10;;;;;;;7.20;3.15;;;11.00;1.00;;;;;;5088566;28;19920;-76
2023/06/01 01:43:38;;;;;;;6.50;3.10;;;11.00;1.00;;;;;;5089114;28;20149;-76
2023/06/01 01:46:28;;;;;;;5.22;2.80;;;11.00;1.00;;;;;;5088240;28;20044;-75
2023/06/01 01:49:12;;;;;;;4.32;2.60;;;11.00;1.00;;;;;;5089148;28;20074;-76
2023/06/01 01:52:09;;;;;;;8.95;3.35;;;11.00;1.00;;;;;;5122635;28;20416;-76
2023/06/01 01:54:37;;;;;;;;;;;11.00;1.00;;;;;;5089112;28;20047;-76
2023/06/01 01:57:04;;;;;;;6.38;2.88;;;11.00;1.00;;;;;;5088165;28;20412;-76
2023/06/01 01:59:30;;;;;;;7.10;3.10;;;11.00;1.00;;;;;;5088418;28;20044;-75
2023/06/01 02:01:55;;;;;;;;;;;11.00;1.00;;;;;;5088836;28;20089;-76
2023/06/01 02:04:21;;;;;;;5.63;3.15;;;11.00;1.00;;;;;;5122694;28;19933;-76
2023/06/01 02:06:47;;;;;;;5.95;2.60;;;11.00;1.00;;;;;;5089675;28;20055;-75
2023/06/01 02:09:13;;;;;;;5.07;2.42;;;11.00;1.00;;;;;;5121670;28;20051;-76
2023/06/01 02:11:38;;;;;;;4.93;2.20;;;11.00;1.00;;;;;;5088191;28;20044;-76
2023/06/01 02:14:04;;;;;;;6.78;2.67;;;11.00;1.00;;;;;;5124543;27;20055;-76
2023/06/01 02:16:30;;;;;;;4.85;2.47;;;11.00;1.00;;;;;;5125975;27;20523;-77
2023/06/01 02:18:57;;;;;;;3.35;2.15;;;11.00;1.00;;;;;;5126001;27;20047;-76
2023/06/01 02:21:24;;;;;;;5.85;2.30;;;11.00;1.00;;;;;;5091845;28;20056;-76
2023/06/01 02:23:50;;;;;;;2.95;2.03;;;11.00;1.00;;;;;;5092158;28;20063;-76
2023/06/01 02:26:16;;;;;;;5.38;2.42;;;11.10;1.00;;;;;;5125427;27;20444;-76
2023/06/01 02:28:42;;;;;;;4.32;2.28;;;11.10;1.00;;;;;;5075006;28;20044;-76
2023/06/01 02:31:09;;;;;;;3.97;2.15;;;11.10;1.00;;;;;;5125621;27;20044;-76
2023/06/01 02:33:35;;;;;;;;;;;11.10;23.50;;;;;;5075413;28;20371;-76
2023/06/01 02:36:00;;;;;;;4.95;2.20;;;11.10;49.70;;;;;;5091490;28;20015;-75
2023/06/01 02:38:26;;;;;;;3.50;2.05;;;11.10;97.00;;;;;;5125481;27;20144;-76
2023/06/01 02:40:52;;;;;;;4.35;2.00;;;11.10;88.60;;;;;;5074729;28;20067;-76
2023/06/01 02:43:18;;;;;;;4.20;1.70;;;11.10;67.50;;;;;;5125620;27;20051;-76
2023/06/01 02:45:43;;;;;;;4.40;2.00;;;11.10;77.30;;;;;;5074337;28;20040;-76
2023/06/01 02:48:09;;;;;;;5.25;2.10;;;11.10;9.10;;;;;;5125531;27;20043;-76
2023/06/01 02:50:35;;;;;;;5.15;2.40;;;11.10;1.00;;;;;;5089859;28;20445;-76
2023/06/01 02:53:01;;;;;;;4.35;2.60;;;11.10;1.00;;;;;;5089896;28;20486;-76
2023/06/01 02:55:27;;;;;;;5.45;2.53;;;11.10;1.00;;;;;;5088363;28;20036;-76
2023/06/01 02:57:52;;;;;;;4.93;2.10;;;11.10;1.00;;;;;;5108084;28;20585;-76
2023/06/01 03:00:18;;;;;;;4.68;2.13;;;11.10;1.00;;;;;;5090915;28;20089;-76
2023/06/01 03:02:45;;;;;;;5.22;2.50;;;11.10;1.00;;;;;;5090143;28;20040;-76
2023/06/01 03:05:17;;;;;;;3.75;1.98;;;11.10;1.00;;;;;;5124591;27;20044;-76
2023/06/01 03:07:46;;;;;;;4.63;2.28;;;11.10;1.00;;;;;;5090514;28;20040;-76
2023/06/01 03:10:13;;;;;;;4.97;2.10;;;11.10;1.00;;;;;;5090963;28;20608;-76
2023/06/01 03:12:39;;;;;;;3.22;1.63;;;11.20;2.20;;;;;;5090732;28;20058;-76
2023/06/01 03:15:05;;;;;;;;;;;11.20;9.30;;;;;;5090964;28;20040;-76
2023/06/01 03:17:31;;;;;;;3.85;2.10;;;11.20;55.40;;;;;;5090597;28;19922;-76
2023/06/01 03:19:57;;;;;;;4.60;1.83;;;11.20;29.20;;;;;;5107739;28;20627;-76
2023/06/01 03:22:23;;;;;;;9.75;3.53;;;11.20;28.10;;;;;;5124688;27;20075;-76
2023/06/01 03:24:54;;;;;;;5.93;2.60;;;11.20;1.00;;;;;;5124409;27;20098;-76
2023/06/01 03:27:20;;;;;;;6.15;2.35;;;11.20;1.00;;;;;;5090451;28;20606;-76
2023/06/01 03:29:46;;;;;;;4.57;2.03;;;11.20;10.70;;;;;;5090614;28;20032;-76
2023/06/01 03:32:13;;;;;;;6.05;3.00;;;11.20;20.90;;;;;;5073802;28;20136;-76
2023/06/01 03:34:40;;;;;;;6.93;2.63;;;11.20;29.50;;;;;;5090358;28;20068;-76
2023/06/01 03:37:07;;;;;;;6.38;2.63;;;11.20;22.50;;;;;;5091587;28;20749;-76
2023/06/01 03:39:34;;;;;;;4.40;2.03;;;11.20;99.90;;;;;;5110332;28;20359;-76
2023/06/01 03:42:00;;;;;;;4.97;2.30;;;11.20;99.90;;;;;;5093580;28;20053;-76
2023/06/01 03:44:26;;;;;;;;;;;11.20;99.90;;;;;;5094008;28;20043;-76
2023/06/01 03:46:51;;;;;;;4.93;2.80;;;11.20;99.90;;;;;;5127889;27;20047;-77
2023/06/01 03:49:18;;;;;;;6.88;2.75;;;11.10;99.90;;;;;;5093670;28;20435;-76
2023/06/01 03:51:43;;;;;;;;;;;11.10;99.90;;;;;;5094203;28;20135;-77
2023/06/01 03:54:09;;;;;;;6.45;2.67;;;11.10;99.90;;;;;;5093365;28;20374;-76
2023/06/01 03:56:35;;;;;;;5.43;2.67;;;11.10;99.90;;;;;;5110805;28;20041;-76
2023/06/01 03:59:01;;;;;;;5.18;2.50;;;11.10;99.90;;;;;;5093103;28;20078;-76
2023/06/01 04:01:29;;;;;;;;;;;11.10;99.90;;;;;;5095927;28;20063;-77
2023/06/01 04:03:56;;;;;;;6.80;2.85;;;11.10;99.90;;;;;;5091808;28;19923;-76
2023/06/01 04:06:23;;;;;;;7.35;3.13;;;11.10;99.90;;;;;;5076445;28;20405;-76
2023/06/01 04:08:55;;;;;;;7.38;3.55;;;11.10;99.90;;;;;;5091941;28;20123;-77
2023/06/01 04:11:22;;;;;;;6.10;2.90;;;11.10;99.90;;;;;;5062892;28;20054;-76
2023/06/01 04:13:48;;;;;;;7.13;2.95;;;11.00;99.90;;;;;;5075393;28;20043;-76
2023/06/01 04:16:15;;;;;;;6.70;3.50;;;11.00;99.90;;;;;;5089867;28;20130;-76
2023/06/01 04:18:41;;;;;;;7.32;3.05;;;11.00;99.90;;;;;;5092667;28;20098;-76
2023/06/01 04:21:08;;;;;;;;;;;11.00;99.90;;;;;;5092618;28;20039;-77
2023/06/01 04:23:34;;;;;;;;;;;11.00;99.90;;;;;;5092002;28;19919;-76
2023/06/01 04:26:00;;;;;;;6.18;2.90;;;11.00;99.90;;;;;;5091836;28;19922;-76
2023/06/01 04:28:26;;;;;;;4.03;2.50;;;11.00;99.90;;;;;;5088949;28;20047;-76
2023/06/01 04:30:52;;;;;;;4.47;2.33;;;11.00;99.90;;;;;;5073200;28;20083;-77
2023/06/01 04:33:18;;;;;;;6.70;2.88;;;11.00;99.90;;;;;;5074489;28;20070;-76
2023/06/01 04:35:44;;;;;;;7.30;2.42;;;11.00;99.90;;;;;;5092377;28;20047;-76
2023/06/01 04:38:11;;;;;;;6.45;2.47;;;11.00;99.90;;;;;;5085605;28;20576;-76
2023/06/01 04:40:36;;;;;;;;;;;11.00;99.90;;;;;;5091049;28;20119;-76
2023/06/01 04:43:02;;;;;;;9.43;3.05;;;11.10;99.90;;;;;;5092870;28;19994;-76
2023/06/01 04:45:33;;;;;;;7.40;2.42;;;11.10;99.90;;;;;;5092742;28;20390;-76
2023/06/01 04:47:59;;;;;;;6.97;2.70;;;11.10;99.90;;;;;;5096734;28;20044;-77
2023/06/01 04:50:28;;;;;;;6.07;2.53;;;11.10;99.90;;;;;;5103269;28;20044;-77
2023/06/01 04:52:55;;;;;;;3.50;1.90;;;11.10;99.90;;;;;;5092234;28;20448;-78
2023/06/01 04:55:20;;;;;;;;;;;11.10;99.90;;;;;;5091819;28;20054;-77
2023/06/01 04:57:46;;;;;;;3.90;1.65;;;11.10;99.90;;;;;;5091641;28;20014;-77
2023/06/01 05:00:17;;;;;;;6.30;2.17;;;11.10;99.90;;;;;;5091887;28;20036;-77
2023/06/01 05:02:44;;;;;;;3.83;1.80;;;11.10;99.90;;;;;;5092976;28;20367;-76
2023/06/01 05:05:11;;;;;;;3.00;1.65;;;11.20;99.90;;;;;;5092443;28;20050;-77
2023/06/01 05:07:38;;;;;;;3.10;1.33;;;11.20;99.90;;;;;;5092243;28;20031;-77
2023/06/01 05:10:09;;;;;;;3.33;1.70;;;11.20;99.90;;;;;;5090997;28;20039;-77
2023/06/01 05:12:36;;;;;;;4.30;1.85;;;11.20;99.90;;;;;;5088877;28;20610;-76
2023/06/01 05:15:07;;;;;;;3.58;1.60;;;11.20;99.90;;;;;;5091349;28;20097;-76
2023/06/01 05:17:33;;;;;;;3.92;2.10;;;11.20;99.90;;;;;;5075408;28;20039;-77
2023/06/01 05:19:59;;;;;;;4.50;2.90;;;11.30;99.90;;;;;;5091136;28;20126;-76
2023/06/01 05:22:26;;;;;;;6.97;3.10;;;11.20;99.90;;;;;;5095146;28;20040;-79
2023/06/01 05:24:52;;;;;;;6.18;2.40;;;11.20;99.90;;;;;;5090667;28;20035;-77
2023/06/01 05:27:17;;;;;;;3.03;1.85;;;11.20;99.90;;;;;;5090359;28;20040;-78
2023/06/01 05:29:43;;;;;;;4.88;2.50;;;11.20;99.90;;;;;;5090478;28;20689;-78
2023/06/01 05:32:10;;;;;;;3.35;2.20;;;11.20;99.90;;;;;;5089442;28;20492;-77
2023/06/01 05:34:35;;;;;;;;;;;11.20;99.90;;;;;;5087470;28;20043;-76
2023/06/01 05:37:02;;;;;;;4.28;2.17;;;11.20;99.90;;;;;;5074971;28;19980;-79
2023/06/01 05:39:28;;;;;;;3.63;1.83;;;11.20;99.90;;;;;;5087618;28;20044;-79
2023/06/01 05:41:57;;;;;;;3.00;1.75;;;11.20;99.90;;;;;;5089989;28;20066;-79
2023/06/01 05:44:24;;;;;;;4.60;2.08;;;11.30;99.90;;;;;;5124709;28;20471;-79
2023/06/01 05:46:51;;;;;;;3.35;1.85;;;11.20;99.90;;;;;;5088290;28;20490;-79
2023/06/01 05:49:16;;;;;;;2.78;1.60;;;11.30;99.90;;;;;;5092785;28;20043;-79
2023/06/01 05:51:42;;;;;;;3.80;1.80;;;11.30;99.90;;;;;;5096027;28;20052;-79
2023/06/01 05:54:09;;;;;;;3.30;1.75;;;11.30;99.90;;;;;;5060103;28;20552;-80
2023/06/01 05:56:37;;;;;;;3.33;1.70;;;11.30;99.90;;;;;;5111818;28;20039;-79
2023/06/01 05:59:02;;;;;;;3.40;1.73;;;11.30;99.90;;;;;;5109999;27;20065;-80
2023/06/01 06:01:28;;;;;;;4.00;2.00;;;11.30;99.90;;;;;;5092319;28;20039;-79
2023/06/01 06:03:55;;;;;;;2.65;1.70;;;11.30;99.90;;;;;;5091855;28;20043;-79
2023/06/01 06:06:22;;;;;;;3.83;2.00;;;11.30;99.90;;;;;;5127920;27;20516;-79
2023/06/01 06:08:48;;;;;;;5.55;2.25;;;11.30;99.90;;;;;;5093436;28;20048;-79
2023/06/01 06:11:14;;;;;;;4.15;2.17;;;11.30;99.90;;;;;;5111395;28;20075;-79
2023/06/01 06:13:39;;;;;;;5.43;2.20;;;11.30;99.90;;;;;;5093530;28;20086;-80
2023/06/01 06:16:05;;;;;;;3.65;2.05;;;11.30;99.90;;;;;;5109623;28;20112;-80
2023/06/01 06:18:31;;;;;;;3.55;1.80;;;11.40;99.90;;;;;;5095049;28;20132;-80
2023/06/01 06:20:57;;;;;;;3.78;1.58;;;11.40;99.90;;;;;;5078651;28;20092;-80
2023/06/01 06:23:23;;;;;;;1.85;1.10;;;11.40;99.90;;;;;;5095560;28;20144;-80
2023/06/01 06:25:49;;;;;;;2.42;1.20;;;11.50;99.90;;;;;;5095728;28;20054;-80
2023/06/01 06:28:15;;;;;;;1.63;0.90;;;11.50;99.90;;;;;;5096163;28;20551;-80
2023/06/01 06:30:41;;;;;;;1.83;1.02;;;11.60;99.90;;;;;;5095541;28;20075;-80
2023/06/01 06:33:07;;;;;;;4.07;1.48;;;11.60;99.90;;;;;;5095096;28;20128;-80
2023/06/01 06:35:32;;;;;;;2.78;1.27;;;11.50;99.90;;;;;;5095972;28;20077;-80
2023/06/01 06:37:58;;;;;;;2.25;1.10;;;11.50;99.90;;;;;;5092405;28;20138;-79
2023/06/01 06:40:24;;;;;;;2.28;1.00;;;11.50;99.90;;;;;;5126491;27;20055;-80
2023/06/01 06:42:50;;;;;;;2.60;1.00;;;11.50;99.90;;;;;;5075023;28;20097;-80
2023/06/01 06:45:16;;;;;;;2.65;1.38;;;11.60;99.90;;;;;;5092196;28;20040;-80
2023/06/01 06:47:45;;;;;;;;;;;11.60;99.90;;;;;;5103025;28;20062;-81
2023/06/01 06:50:11;;;;;;;3.00;1.25;;;11.60;99.90;;;;;;5112879;28;19923;-80
2023/06/01 06:52:37;;;;;;;1.67;1.13;;;11.50;99.90;;;;;;5096311;28;20490;-80
2023/06/01 06:55:04;;;;;;;2.35;1.38;;;11.50;99.90;;;;;;5105530;28;20119;-80
2023/06/01 06:57:29;;;;;;;4.47;1.42;;;11.50;99.90;;;;;;5091439;28;20375;-80
2023/06/01 06:59:55;;;;;;;3.28;1.27;;;11.50;99.90;;;;;;5073582;28;20040;-78
2023/06/01 07:02:22;;;;;;;4.82;1.50;;;11.50;99.90;;;;;;5126100;27;20046;-80
2023/06/01 07:04:48;;;;;;;;;;;11.50;99.90;;;;;;5125997;27;20078;-79
2023/06/01 07:07:14;;;;;;;1.92;1.27;;;11.50;99.90;;;;;;5092233;28;20020;-80
2023/06/01 07:09:40;;;;;;;3.28;1.42;;;11.50;99.90;;;;;;5125928;27;20098;-79
2023/06/01 07:12:07;;;;;;;4.00;1.10;;;11.50;99.90;;;;;;5108082;28;20050;-80
2023/06/01 07:14:32;;;;;;;1.92;0.90;;;11.50;99.90;;;;;;5091295;28;20108;-80
2023/06/01 07:16:58;;;;;;;1.70;0.90;;;11.60;99.90;;;;;;5107786;28;20490;-78
2023/06/01 07:19:24;;;;;;;1.95;0.93;;;11.60;99.90;;;;;;5090861;28;20048;-79
2023/06/01 07:21:50;;;;;;;1.30;0.77;;;11.60;99.90;;;;;;5090501;28;20348;-79
2023/06/01 07:24:19;;;;;;;2.35;0.90;;;11.60;99.90;;;;;;5053908;28;20085;-79
2023/06/01 07:26:44;;;;;;;2.22;1.20;;;11.60;99.90;;;;;;5087740;28;20080;-79
2023/06/01 07:29:11;;;;;;;2.35;1.13;;;11.80;99.90;;;;;;5088312;28;20071;-79
2023/06/01 07:31:38;;;;;;;3.45;1.30;;;11.70;99.90;;;;;;5091187;28;20044;-79
2023/06/01 07:34:04;;;;;;;2.83;1.10;;;11.80;99.90;;;;;;5101836;28;20036;-77
2023/06/01 07:36:35;;;;;;;3.42;1.50;;;11.80;99.90;;;;;;5074217;28;20403;-79
2023/06/01 07:39:01;;;;;;;4.18;1.73;;;11.70;99.90;;;;;;5090342;28;20063;-79
2023/06/01 07:41:27;;;;;;;3.85;1.30;;;11.80;99.90;;;;;;5089771;28;20040;-79
2023/06/01 07:43:53;;;;;;;2.83;1.50;;;11.80;99.90;;;;;;5092077;28;20470;-79
2023/06/01 07:46:19;;;;;;;2.58;1.30;;;11.80;99.90;;;;;;5089135;28;20043;-79
2023/06/01 07:48:44;;;;;;;2.33;1.30;;;11.90;99.90;;;;;;5090318;28;20048;-79
2023/06/01 07:51:10;;;;;;;3.78;1.35;;;12.00;99.90;;;;;;5090295;28;20044;-79
2023/06/01 07:53:36;;;;;;;1.77;1.08;;;12.00;99.90;;;;;;5090583;28;20047;-79
2023/06/01 07:56:02;;;;;;;1.40;0.98;;;12.10;99.90;;;;;;5073597;28;20048;-80
2023/06/01 07:58:28;;;;;;;;;;;12.20;99.90;;;;;;5073772;28;20055;-79
2023/06/01 08:00:54;;;;;;;3.70;1.10;;;12.10;99.90;;;;;;5073310;28;19920;-80
2023/06/01 08:03:21;;;;;;;;;;;12.10;99.90;;;;;;5092136;28;20043;-80
2023/06/01 08:05:47;;;;;;;2.03;0.70;;;12.00;99.90;;;;;;5090216;28;20307;-79
2023/06/01 08:08:14;;;;;;;2.55;0.93;;;11.90;99.90;;;;;;5090356;28;20126;-80
2023/06/01 08:10:40;;;;;;;1.90;0.80;;;11.90;99.90;;;;;;5073274;28;20048;-79
2023/06/01 08:13:07;;;;;;;1.77;0.70;;;12.10;99.90;;;;;;5090118;28;20052;-79
2023/06/01 08:15:34;;;;;;;1.60;0.70;;;12.00;99.90;;;;;;5089819;28;20119;-79
2023/06/01 08:18:00;;;;;;;3.38;1.10;;;12.10;99.90;;;;;;5089916;28;20130;-79
2023/06/01 08:20:27;;;;;;;1.42;0.82;;;12.10;99.90;;;;;;5090110;28;20197;-79
2023/06/01 08:22:53;;;;;;;1.95;0.90;;;12.20;99.90;;;;;;5074460;28;20083;-79
2023/06/01 08:25:19;;;;;;;3.47;1.30;;;12.20;99.90;;;;;;5074004;28;20078;-79
2023/06/01 08:27:44;;;;;;;3.63;1.52;;;12.20;99.90;;;;;;5090889;28;20044;-79
2023/06/01 08:30:13;;;;;;;3.65;1.60;;;12.10;99.90;;;;;;5089868;28;20044;-79
2023/06/01 08:32:39;;;;;;;5.57;1.98;;;12.10;99.90;;;;;;5073706;28;20047;-79
2023/06/01 08:35:07;;;;;;;4.10;1.90;;;12.10;99.90;;;;;;5090594;28;20493;-79
2023/06/01 08:37:33;;;;;;;4.93;2.15;;;12.10;99.90;;;;;;5093633;28;20450;-79
2023/06/01 08:40:00;;;;;;;3.08;1.70;;;12.10;99.90;;;;;;5076860;28;20409;-79
2023/06/01 08:42:36;;;;;;;5.53;2.40;;;12.10;99.90;;;;;;5076363;28;20031;-79
2023/06/01 08:45:05;;;;;;;3.70;1.88;;;12.10;99.90;;;;;;5075983;28;20043;-79
2023/06/01 08:47:32;;;;;;;12.07;3.15;;;12.20;99.90;;;;;;5126872;27;20043;-79
2023/06/01 08:50:01;;;;;;;5.80;2.28;;;12.00;99.90;;;;;;5092688;28;20039;-79
2023/06/01 08:52:31;;;;;;;4.20;1.85;;;12.10;99.90;;;;;;5075797;28;20042;-79
2023/06/01 08:54:59;;;;;;;5.82;2.35;;;12.10;99.90;;;;;;5092464;28;20043;-78
2023/06/01 08:57:25;;;;;;;3.38;1.65;;;12.10;99.90;;;;;;5092978;28;20039;-79
2023/06/01 08:59:52;;;;;;;4.43;2.00;;;12.20;99.90;;;;;;5092325;28;20043;-79
2023/06/01 09:02:17;;;;;;;8.77;2.22;;;12.20;99.90;;;;;;5075791;28;20048;-79
2023/06/01 09:04:44;;;;;;;6.50;2.65;;;12.30;91.90;;;;;;5092854;28;20046;-79
2023/06/01 09:07:13;;;;;;;9.52;2.53;;;12.30;99.90;;;;;;5092766;28;20530;-79
2023/06/01 09:09:40;;;;;;;4.90;2.13;;;12.30;99.90;;;;;;5075619;28;20131;-79
2023/06/01 09:12:27;;;;;;;6.13;2.10;;;12.30;99.90;;;;;;5092712;28;20094;-78
2023/06/01 09:15:12;;;;;;;6.68;2.20;;;12.40;99.90;;;;;;5109518;28;20047;-79
2023/06/01 09:17:39;;;;;;;5.35;2.08;;;12.30;99.90;;;;;;5126343;28;20483;-79
2023/06/01 09:20:06;;;;;;;4.43;1.83;;;12.30;1.00;;;;;;5126606;28;20043;-79
2023/06/01 09:22:40;;;;;;;5.03;1.65;;;12.40;1.00;;;;;;5060751;28;20126;-79
2023/06/01 09:25:06;;;;;;;5.82;1.65;;;12.30;96.70;;;;;;5130697;27;20043;-79
2023/06/01 09:27:44;;;;;;;2.45;1.30;;;12.30;97.20;;;;;;5079665;28;20050;-79
2023/06/01 09:30:10;;;;;;;7.82;1.65;;;12.50;99.90;;;;;;5096347;28;20490;-79
2023/06/01 09:32:36;;;;;;;4.25;1.58;;;12.50;99.90;;;;;;5096612;28;20040;-79
2023/06/01 09:35:01;;;;;;;5.65;1.60;;;12.60;99.90;;;;;;5096266;28;20048;-79
2023/06/01 09:37:27;;;;;;;4.95;1.90;;;12.60;1.00;;;;;;5096121;28;20073;-78
2023/06/01 09:39:53;;;;;;;4.20;1.85;;;12.60;99.90;;;;;;5096211;28;20047;-79
2023/06/01 09:42:31;;;;;;;6.18;2.13;;;12.50;1.00;;;;;;5096516;28;20040;-79
2023/06/01 09:45:18;;;;;;;4.53;1.80;;;12.50;59.50;;;;;;5096807;28;20100;-79
2023/06/01 09:47:44;;;;;;;7.32;2.05;;;12.50;99.90;;;;;;5116309;28;20355;-79
2023/06/01 09:50:11;;;;;;;6.80;1.90;;;12.60;99.90;;;;;;5100249;28;20043;-79
2023/06/01 09:52:37;;;;;;;3.85;1.70;;;12.70;99.90;;;;;;5098093;28;20042;-80
2023/06/01 09:55:08;;;;;;;5.93;1.80;;;12.60;99.90;;;;;;5081283;28;20058;-79
2023/06/01 09:57:33;;;;;;;3.88;1.60;;;12.70;1.00;;;;;;5096768;28;20115;-79
2023/06/01 10:00:11;;;;;;;4.13;1.73;;;12.60;99.90;;;;;;5096084;28;20122;-78
2023/06/01 10:02:40;;;;;;;5.70;2.03;;;12.60;99.90;;;;;;5130290;27;20055;-79
2023/06/01 10:05:07;;;;;;;5.03;2.03;;;12.60;1.00;;;;;;5095551;28;20156;-78
2023/06/01 10:07:34;;;;;;;3.47;1.77;;;12.60;99.90;;;;;;5096152;28;20044;-79
2023/06/01 10:10:02;;;;;;;3.72;1.90;;;12.80;23.30;;;;;;5078690;28;20506;-79
2023/06/01 10:12:28;;;;;;;7.65;2.30;;;12.70;99.90;;;;;;5078852;28;20486;-79
2023/06/01 10:14:55;;;;;;;6.57;2.00;;;12.70;99.90;;;;;;5095327;28;20160;-80
2023/06/01 10:17:21;;;;;;;5.47;1.95;;;12.70;99.90;;;;;;5078645;28;20046;-78
2023/06/01 10:19:48;;;;;;;6.32;2.00;;;12.70;99.90;;;;;;5095352;28;20043;-79
2023/06/01 10:22:14;;;;;;;5.95;1.80;;;12.70;1.00;;;;;;5078842;28;20043;-79
2023/06/01 10:24:42;;;;;;;6.25;2.00;;;12.70;99.90;;;;;;5078720;28;20151;-80
2023/06/01 10:27:32;;;;;;;8.13;2.40;;;12.70;99.90;;;;;;5095430;28;20062;-79
2023/06/01 10:29:57;;;;;;;3.65;2.10;;;12.80;99.90;;;;;;5129700;27;20047;-79
2023/06/01 10:32:42;;;;;;;5.20;2.00;;;12.80;29.20;;;;;;5078593;28;20489;-79
2023/06/01 10:35:10;;;;;;;7.68;2.25;;;12.90;88.00;;;;;;5127932;27;20035;-79
2023/06/01 10:37:36;;;;;;;4.88;1.98;;;13.10;99.90;;;;;;5095080;28;20078;-79
2023/06/01 10:40:21;;;;;;;5.93;2.03;;;13.20;99.90;;;;;;5085989;28;20083;-79
2023/06/01 10:42:47;;;;;;;3.63;1.80;;;13.30;1.00;;;;;;5109086;28;20044;-79
2023/06/01 10:45:35;;;;;;;4.28;1.80;;;13.30;99.90;;;;;;5057906;28;20043;-79
2023/06/01 10:48:02;;;;;;;3.90;1.67;;;13.20;99.90;;;;;;5074647;28;20487;-79
2023/06/01 10:50:27;;;;;;;7.88;2.03;;;13.20;99.90;;;;;;5075122;28;20363;-79
2023/06/01 10:52:54;;;;;;;6.38;2.08;;;13.10;99.90;;;;;;5074954;28;20391;-79
2023/06/01 10:55:22;;;;;;;7.22;2.13;;;13.10;1.00;;;;;;5091710;28;20137;-79
2023/06/01 10:57:48;;;;;;;6.88;2.10;;;13.10;32.30;;;;;;5108351;28;20062;-79
2023/06/01 11:00:17;;;;;;;5.47;1.95;;;13.00;1.00;;;;;;5108881;28;20039;-79
2023/06/01 11:02:44;;;;;;;4.47;1.75;;;13.00;1.00;;;;;;5091442;28;20152;-79
2023/06/01 11:05:38;;;;;;;5.32;2.00;;;13.00;99.90;;;;;;5115033;27;20319;-80
2023/06/01 11:08:29;;;;;;;4.72;1.80;;;13.00;99.90;;;;;;5078012;28;20035;-78
2023/06/01 11:10:59;;;;;;;3.92;1.58;;;13.10;99.90;;;;;;5065187;28;20136;-79
2023/06/01 11:13:29;;;;;;;6.55;1.90;;;13.30;99.90;;;;;;5077424;28;20061;-80
2023/06/01 11:16:04;;;;;;;6.97;2.15;;;13.20;54.30;;;;;;5093409;28;20079;-79
2023/06/01 11:18:49;;;;;;;3.28;1.35;;;13.20;99.90;;;;;;5111224;28;20077;-79
2023/06/01 11:21:23;;;;;;;4.25;1.70;;;13.50;99.90;;;;;;5094157;28;20051;-79
2023/06/01 11:23:50;;;;;;;3.22;1.70;;;13.60;99.90;;;;;;5094383;28;20054;-79
2023/06/01 11:26:17;;;;;;;3.78;1.60;;;13.60;3.60;;;;;;5094401;28;20051;-80
2023/06/01 11:28:44;;;;;;;4.47;1.60;;;13.70;1.00;;;;;;5110675;28;20502;-80
2023/06/01 11:31:12;;;;;;;7.75;2.10;;;13.70;84.60;;;;;;5094316;28;20047;-79
2023/06/01 11:33:45;;;;;;;5.72;1.70;;;13.70;99.90;;;;;;5093952;28;20482;-79
2023/06/01 11:36:13;;;;;;;3.50;1.60;;;13.80;99.90;;;;;;5127799;27;20047;-78
2023/06/01 11:38:41;;;;;;;5.38;1.90;;;13.80;99.90;;;;;;5110358;28;20047;-79
2023/06/01 11:41:08;;;;;;;4.40;1.90;;;13.60;99.90;;;;;;5109981;28;20039;-78
2023/06/01 11:43:35;;;;;;;7.85;2.13;;;13.60;99.90;;;;;;5093360;28;20040;-79
2023/06/01 11:46:09;;;;;;;6.97;2.28;;;13.30;99.90;;;;;;5111497;28;20039;-78
2023/06/01 11:48:35;;;;;;;4.90;1.88;;;13.10;1.00;;;;;;5092776;28;20130;-78
2023/06/01 11:51:01;;;;;;;;;;;13.20;99.90;;;;;;5088501;28;20079;-78
2023/06/01 11:53:29;;;;;;;3.08;1.70;;;13.10;99.90;;;;;;5092281;28;20048;-78
2023/06/01 11:55:56;;;;;;;7.30;2.17;;;13.20;99.90;;;;;;5111406;28;20036;-78
2023/06/01 11:58:25;;;;;;;;;;;13.30;99.90;;;;;;5093346;28;20048;-78
2023/06/01 12:00:52;;;;;;;5.15;2.20;;;13.30;1.00;;;;;;5092515;28;19939;-78
2023/06/01 12:03:18;;;;;;;4.43;1.75;;;13.20;1.00;;;;;;5092769;28;20043;-78
2023/06/01 12:05:51;;;;;;;4.82;1.70;;;13.20;1.00;;;;;;5093288;28;20146;-78
2023/06/01 12:08:20;;;;;;;5.72;2.17;;;13.20;68.10;;;;;;5076624;28;20059;-78
2023/06/01 12:10:48;;;;;;;4.82;2.00;;;13.20;50.50;;;;;;5089991;28;20491;-78
2023/06/01 12:13:17;;;;;;;6.13;1.90;;;13.10;1.00;;;;;;5093489;28;20039;-78
2023/06/01 12:15:44;;;;;;;5.43;2.13;;;13.10;1.00;;;;;;5092276;28;20414;-78
2023/06/01 12:18:10;;;;;;;3.45;1.50;;;13.00;1.00;;;;;;5088375;28;20035;-79
2023/06/01 12:20:43;;;;;;;4.53;1.77;;;13.20;54.60;;;;;;5075358;28;20046;-78
2023/06/01 12:23:18;;;;;;;5.38;1.90;;;13.10;99.90;;;;;;5076152;28;20502;-78
2023/06/01 12:25:58;;;;;;;3.97;1.80;;;13.30;3.20;;;;;;5093208;28;20079;-78
2023/06/01 12:28:35;;;;;;;4.22;1.75;;;13.20;1.00;;;;;;5092801;28;20130;-78
2023/06/01 12:31:15;;;;;;;6.65;1.88;;;13.30;71.40;;;;;;5092706;28;20092;-78
2023/06/01 12:33:44;;;;;;;3.33;1.48;;;13.20;99.90;;;;;;5093319;28;20389;-78
2023/06/01 12:36:12;;;;;;;3.10;1.48;;;13.30;1.00;;;;;;5092609;28;20047;-78
2023/06/01 12:38:51;;;;;;;6.60;1.65;;;13.50;89.90;;;;;;5091381;28;20063;-78
2023/06/01 12:41:17;;;;;;;5.70;1.88;;;13.50;92.40;;;;;;5091247;28;20036;-79
2023/06/01 12:43:48;;;;;;;7.10;1.73;;;13.40;96.10;;;;;;5091270;28;20474;-79
2023/06/01 12:46:25;;;;;;;7.95;2.20;;;13.20;99.90;;;;;;5088910;28;20062;-78
2023/06/01 12:48:53;;;;;;;6.00;2.25;;;13.10;99.90;;;;;;5109312;28;20128;-78
2023/06/01 12:51:21;;;;;;;6.60;2.55;;;13.10;1.00;;;;;;5089527;28;20044;-78
2023/06/01 12:53:47;;;;;;;9.85;2.40;;;13.10;1.00;;;;;;5115101;27;20386;-78
2023/06/01 12:56:13;;;;;;;;;;;12.90;1.00;;;;;;5091801;28;20047;-78
2023/06/01 12:58:39;;;;;;;5.13;1.65;;;12.90;99.90;;;;;;5092967;28;19927;-78
2023/06/01 13:01:05;;;;;;;6.72;1.88;;;12.90;1.00;;;;;;5097445;28;20047;-78